sensor_id;sensor_type;location;lat;lon;timestamp;temperature;humidity
490;DHT22;231;48.120;11.576;2022-07-29T00:00:48;22.40;14.20
490;DHT22;231;48.120;11.576;2022-07-29T00:03:15;22.30;14.10
490;DHT22;231;48.120;11.576;2022-07-29T00:05:42;22.40;14.10
490;DHT22;231;48.120;11.576;2022-07-29T00:08:09;22.30;14.10
490;DHT22;231;48.120;11.576;2022-07-29T00:10:37;22.40;14.50
490;DHT22;231;48.120;11.576;2022-07-29T00:13:05;22.40;14.40
490;DHT22;231;48.120;11.576;2022-07-29T00:15:32;22.50;14.40
490;DHT22;231;48.120;11.576;2022-07-29T00:17:59;22.50;14.40
490;DHT22;231;48.120;11.576;2022-07-29T00:20:26;22.40;14.80
490;DHT22;231;48.120;11.576;2022-07-29T00:22:53;22.40;15.10
490;DHT22;231;48.120;11.576;2022-07-29T00:25:20;22.40;15.40
490;DHT22;231;48.120;11.576;2022-07-29T00:27:48;22.50;15.60
490;DHT22;231;48.120;11.576;2022-07-29T00:30:15;22.50;15.70
490;DHT22;231;48.120;11.576;2022-07-29T00:32:42;22.40;15.80
490;DHT22;231;48.120;11.576;2022-07-29T00:35:09;22.30;15.90
490;DHT22;231;48.120;11.576;2022-07-29T00:37:53;22.30;15.80
490;DHT22;231;48.120;11.576;2022-07-29T00:40:20;22.20;15.40
490;DHT22;231;48.120;11.576;2022-07-29T00:42:50;22.30;15.40
490;DHT22;231;48.120;11.576;2022-07-29T00:45:18;22.30;15.00
490;DHT22;231;48.120;11.576;2022-07-29T00:47:47;22.30;14.60
490;DHT22;231;48.120;11.576;2022-07-29T00:50:15;22.30;14.20
490;DHT22;231;48.120;11.576;2022-07-29T00:52:42;22.30;14.00
490;DHT22;231;48.120;11.576;2022-07-29T00:55:10;22.40;13.50
490;DHT22;231;48.120;11.576;2022-07-29T00:57:38;22.40;13.20
490;DHT22;231;48.120;11.576;2022-07-29T01:00:09;22.50;13.00
490;DHT22;231;48.120;11.576;2022-07-29T01:02:37;22.50;12.80
490;DHT22;231;48.120;11.576;2022-07-29T01:05:05;22.60;12.60
490;DHT22;231;48.120;11.576;2022-07-29T01:07:33;22.70;12.30
490;DHT22;231;48.120;11.576;2022-07-29T01:10:02;22.70;11.80
490;DHT22;231;48.120;11.576;2022-07-29T01:12:30;22.40;11.60
490;DHT22;231;48.120;11.576;2022-07-29T01:14:59;22.50;12.10
490;DHT22;231;48.120;11.576;2022-07-29T01:17:33;22.40;12.10
490;DHT22;231;48.120;11.576;2022-07-29T01:20:07;22.50;12.10
490;DHT22;231;48.120;11.576;2022-07-29T01:23:01;22.60;11.70
490;DHT22;231;48.120;11.576;2022-07-29T01:25:48;22.60;11.30
490;DHT22;231;48.120;11.576;2022-07-29T01:28:47;22.60;11.20
490;DHT22;231;48.120;11.576;2022-07-29T01:31:20;22.60;11.30
490;DHT22;231;48.120;11.576;2022-07-29T01:33:52;22.60;11.60
490;DHT22;231;48.120;11.576;2022-07-29T01:36:25;22.50;11.70
490;DHT22;231;48.120;11.576;2022-07-29T01:38:59;22.50;11.70
490;DHT22;231;48.120;11.576;2022-07-29T01:41:31;22.60;11.60
490;DHT22;231;48.120;11.576;2022-07-29T01:44:05;22.60;11.30
490;DHT22;231;48.120;11.576;2022-07-29T01:46:40;22.60;11.00
490;DHT22;231;48.120;11.576;2022-07-29T01:49:11;22.60;10.50
490;DHT22;231;48.120;11.576;2022-07-29T01:51:43;22.60;11.10
490;DHT22;231;48.120;11.576;2022-07-29T01:54:14;22.60;10.70
490;DHT22;231;48.120;11.576;2022-07-29T01:56:43;22.60;10.50
490;DHT22;231;48.120;11.576;2022-07-29T01:59:13;22.50;10.10
490;DHT22;231;48.120;11.576;2022-07-29T02:01:41;22.40;10.70
490;DHT22;231;48.120;11.576;2022-07-29T02:04:10;22.40;10.80
490;DHT22;231;48.120;11.576;2022-07-29T02:06:39;22.20;11.00
490;DHT22;231;48.120;11.576;2022-07-29T02:09:09;22.10;11.40
490;DHT22;231;48.120;11.576;2022-07-29T02:11:38;22.10;12.10
490;DHT22;231;48.120;11.576;2022-07-29T02:14:05;22.10;12.20
490;DHT22;231;48.120;11.576;2022-07-29T02:16:36;22.20;12.40
490;DHT22;231;48.120;11.576;2022-07-29T02:19:04;22.20;12.40
490;DHT22;231;48.120;11.576;2022-07-29T02:21:35;22.20;12.60
490;DHT22;231;48.120;11.576;2022-07-29T02:24:04;22.00;12.70
490;DHT22;231;48.120;11.576;2022-07-29T02:26:32;22.00;13.30
490;DHT22;231;48.120;11.576;2022-07-29T02:29:01;22.10;13.70
490;DHT22;231;48.120;11.576;2022-07-29T02:31:34;22.10;13.40
490;DHT22;231;48.120;11.576;2022-07-29T02:34:06;22.00;13.60
490;DHT22;231;48.120;11.576;2022-07-29T02:36:34;22.00;13.80
490;DHT22;231;48.120;11.576;2022-07-29T02:39:02;22.00;14.00
490;DHT22;231;48.120;11.576;2022-07-29T02:41:33;21.90;14.30
490;DHT22;231;48.120;11.576;2022-07-29T02:44:05;22.00;14.20
490;DHT22;231;48.120;11.576;2022-07-29T02:46:36;22.00;14.00
490;DHT22;231;48.120;11.576;2022-07-29T02:49:09;21.90;14.50
490;DHT22;231;48.120;11.576;2022-07-29T02:51:41;21.90;14.50
490;DHT22;231;48.120;11.576;2022-07-29T02:54:11;21.90;14.80
490;DHT22;231;48.120;11.576;2022-07-29T02:56:44;21.80;14.80
490;DHT22;231;48.120;11.576;2022-07-29T02:59:13;21.80;14.80
490;DHT22;231;48.120;11.576;2022-07-29T03:01:43;21.90;14.70
490;DHT22;231;48.120;11.576;2022-07-29T03:04:12;21.90;14.50
490;DHT22;231;48.120;11.576;2022-07-29T03:06:42;21.90;14.50
490;DHT22;231;48.120;11.576;2022-07-29T03:09:10;21.90;14.50
490;DHT22;231;48.120;11.576;2022-07-29T03:11:39;21.90;14.50
490;DHT22;231;48.120;11.576;2022-07-29T03:14:06;22.00;14.60
490;DHT22;231;48.120;11.576;2022-07-29T03:16:34;22.00;14.60
490;DHT22;231;48.120;11.576;2022-07-29T03:19:04;21.90;14.50
490;DHT22;231;48.120;11.576;2022-07-29T03:21:31;21.90;14.80
490;DHT22;231;48.120;11.576;2022-07-29T03:23:58;21.90;14.90
490;DHT22;231;48.120;11.576;2022-07-29T03:26:25;21.90;14.90
490;DHT22;231;48.120;11.576;2022-07-29T03:28:53;21.90;15.00
490;DHT22;231;48.120;11.576;2022-07-29T03:31:21;21.90;15.10
490;DHT22;231;48.120;11.576;2022-07-29T03:33:48;21.90;15.20
490;DHT22;231;48.120;11.576;2022-07-29T03:36:16;21.90;15.40
490;DHT22;231;48.120;11.576;2022-07-29T03:38:44;21.90;15.50
490;DHT22;231;48.120;11.576;2022-07-29T03:41:13;21.90;15.60
490;DHT22;231;48.120;11.576;2022-07-29T03:43:41;21.90;15.80
490;DHT22;231;48.120;11.576;2022-07-29T03:46:10;21.80;16.10
490;DHT22;231;48.120;11.576;2022-07-29T03:48:42;21.80;16.00
490;DHT22;231;48.120;11.576;2022-07-29T03:51:13;21.80;16.20
490;DHT22;231;48.120;11.576;2022-07-29T03:53:42;21.80;16.30
490;DHT22;231;48.120;11.576;2022-07-29T03:56:10;21.70;16.40
490;DHT22;231;48.120;11.576;2022-07-29T03:58:38;21.50;16.70
490;DHT22;231;48.120;11.576;2022-07-29T04:01:06;21.50;17.40
490;DHT22;231;48.120;11.576;2022-07-29T04:03:33;21.40;17.60
490;DHT22;231;48.120;11.576;2022-07-29T04:06:02;21.40;18.10
490;DHT22;231;48.120;11.576;2022-07-29T04:08:31;21.40;17.90
490;DHT22;231;48.120;11.576;2022-07-29T04:10:59;21.30;18.00
490;DHT22;231;48.120;11.576;2022-07-29T04:13:27;21.20;18.60
490;DHT22;231;48.120;11.576;2022-07-29T04:15:54;21.20;18.70
490;DHT22;231;48.120;11.576;2022-07-29T04:18:21;21.10;19.00
490;DHT22;231;48.120;11.576;2022-07-29T04:20:48;21.00;19.20
490;DHT22;231;48.120;11.576;2022-07-29T04:23:15;21.00;19.60
490;DHT22;231;48.120;11.576;2022-07-29T04:25:42;21.00;20.00
490;DHT22;231;48.120;11.576;2022-07-29T04:28:11;20.90;19.80
490;DHT22;231;48.120;11.576;2022-07-29T04:30:39;20.90;19.70
490;DHT22;231;48.120;11.576;2022-07-29T04:33:06;21.00;20.40
490;DHT22;231;48.120;11.576;2022-07-29T04:35:35;21.00;20.50
490;DHT22;231;48.120;11.576;2022-07-29T04:38:03;21.00;20.40
490;DHT22;231;48.120;11.576;2022-07-29T04:40:30;21.10;20.40
490;DHT22;231;48.120;11.576;2022-07-29T04:42:59;21.20;20.40
490;DHT22;231;48.120;11.576;2022-07-29T04:45:27;21.30;20.10
490;DHT22;231;48.120;11.576;2022-07-29T04:47:55;21.50;19.70
490;DHT22;231;48.120;11.576;2022-07-29T04:50:22;21.60;19.50
490;DHT22;231;48.120;11.576;2022-07-29T04:52:49;21.70;18.90
490;DHT22;231;48.120;11.576;2022-07-29T04:55:16;21.70;18.80
490;DHT22;231;48.120;11.576;2022-07-29T04:57:43;21.80;18.40
490;DHT22;231;48.120;11.576;2022-07-29T05:00:11;21.80;18.20
490;DHT22;231;48.120;11.576;2022-07-29T05:02:40;21.90;17.00
490;DHT22;231;48.120;11.576;2022-07-29T05:05:07;22.00;17.20
490;DHT22;231;48.120;11.576;2022-07-29T05:07:34;22.00;16.30
490;DHT22;231;48.120;11.576;2022-07-29T05:10:01;22.00;16.30
490;DHT22;231;48.120;11.576;2022-07-29T05:12:28;22.10;16.20
490;DHT22;231;48.120;11.576;2022-07-29T05:14:55;22.10;15.80
490;DHT22;231;48.120;11.576;2022-07-29T05:17:22;22.00;15.30
490;DHT22;231;48.120;11.576;2022-07-29T05:19:50;22.00;15.50
490;DHT22;231;48.120;11.576;2022-07-29T05:22:18;22.10;15.40
490;DHT22;231;48.120;11.576;2022-07-29T05:24:45;22.10;15.20
490;DHT22;231;48.120;11.576;2022-07-29T05:27:12;22.20;15.00
490;DHT22;231;48.120;11.576;2022-07-29T05:29:39;22.20;15.30
490;DHT22;231;48.120;11.576;2022-07-29T05:32:06;22.40;15.00
490;DHT22;231;48.120;11.576;2022-07-29T05:34:34;22.40;15.00
490;DHT22;231;48.120;11.576;2022-07-29T05:37:02;22.40;14.90
490;DHT22;231;48.120;11.576;2022-07-29T05:39:29;22.40;14.80
490;DHT22;231;48.120;11.576;2022-07-29T05:41:56;22.40;14.80
490;DHT22;231;48.120;11.576;2022-07-29T05:44:23;22.50;14.90
490;DHT22;231;48.120;11.576;2022-07-29T05:46:50;22.60;14.30
490;DHT22;231;48.120;11.576;2022-07-29T05:49:17;22.40;14.50
490;DHT22;231;48.120;11.576;2022-07-29T05:51:44;22.20;15.00
490;DHT22;231;48.120;11.576;2022-07-29T05:54:12;22.10;15.40
490;DHT22;231;48.120;11.576;2022-07-29T05:56:39;22.10;15.60
490;DHT22;231;48.120;11.576;2022-07-29T05:59:06;22.20;15.80
490;DHT22;231;48.120;11.576;2022-07-29T06:01:34;22.30;15.60
490;DHT22;231;48.120;11.576;2022-07-29T06:04:05;22.30;15.40
490;DHT22;231;48.120;11.576;2022-07-29T06:06:32;22.40;14.80
490;DHT22;231;48.120;11.576;2022-07-29T06:08:59;22.40;14.80
490;DHT22;231;48.120;11.576;2022-07-29T06:11:27;22.50;14.60
490;DHT22;231;48.120;11.576;2022-07-29T06:13:54;22.60;14.20
490;DHT22;231;48.120;11.576;2022-07-29T06:16:21;22.60;13.80
490;DHT22;231;48.120;11.576;2022-07-29T06:18:48;22.70;13.80
490;DHT22;231;48.120;11.576;2022-07-29T06:21:15;22.70;13.50
490;DHT22;231;48.120;11.576;2022-07-29T06:23:42;22.80;13.30
490;DHT22;231;48.120;11.576;2022-07-29T06:26:09;22.90;13.10
490;DHT22;231;48.120;11.576;2022-07-29T06:28:37;23.00;12.90
490;DHT22;231;48.120;11.576;2022-07-29T06:31:05;23.00;12.80
490;DHT22;231;48.120;11.576;2022-07-29T06:33:32;22.90;12.10
490;DHT22;231;48.120;11.576;2022-07-29T06:35:59;23.00;12.20
490;DHT22;231;48.120;11.576;2022-07-29T06:38:26;23.00;12.10
490;DHT22;231;48.120;11.576;2022-07-29T06:40:53;23.10;12.00
490;DHT22;231;48.120;11.576;2022-07-29T06:43:33;23.10;11.90
490;DHT22;231;48.120;11.576;2022-07-29T06:46:04;23.10;12.00
490;DHT22;231;48.120;11.576;2022-07-29T06:48:31;23.20;11.90
490;DHT22;231;48.120;11.576;2022-07-29T06:50:59;23.10;11.60
490;DHT22;231;48.120;11.576;2022-07-29T06:53:26;23.00;11.60
490;DHT22;231;48.120;11.576;2022-07-29T06:55:53;23.10;11.80
490;DHT22;231;48.120;11.576;2022-07-29T06:58:20;23.30;11.80
490;DHT22;231;48.120;11.576;2022-07-29T07:00:47;23.50;11.90
490;DHT22;231;48.120;11.576;2022-07-29T07:03:16;23.50;11.60
490;DHT22;231;48.120;11.576;2022-07-29T07:05:44;23.40;11.80
490;DHT22;231;48.120;11.576;2022-07-29T07:08:11;23.50;11.90
490;DHT22;231;48.120;11.576;2022-07-29T07:10:39;23.60;11.80
490;DHT22;231;48.120;11.576;2022-07-29T07:13:06;23.80;11.70
490;DHT22;231;48.120;11.576;2022-07-29T07:15:33;23.90;11.30
490;DHT22;231;48.120;11.576;2022-07-29T07:18:01;24.00;11.00
490;DHT22;231;48.120;11.576;2022-07-29T07:20:30;24.00;10.80
490;DHT22;231;48.120;11.576;2022-07-29T07:22:57;24.10;10.40
490;DHT22;231;48.120;11.576;2022-07-29T07:25:24;24.10;10.70
490;DHT22;231;48.120;11.576;2022-07-29T07:27:51;24.80;10.10
490;DHT22;231;48.120;11.576;2022-07-29T07:30:18;25.70;7.60
490;DHT22;231;48.120;11.576;2022-07-29T07:32:45;26.90;5.30
490;DHT22;231;48.120;11.576;2022-07-29T07:35:12;28.00;2.00
490;DHT22;231;48.120;11.576;2022-07-29T07:37:41;28.70;1.00
490;DHT22;231;48.120;11.576;2022-07-29T07:40:10;29.30;1.00
490;DHT22;231;48.120;11.576;2022-07-29T07:42:37;29.80;1.00
490;DHT22;231;48.120;11.576;2022-07-29T07:45:05;29.60;1.00
490;DHT22;231;48.120;11.576;2022-07-29T07:47:32;29.80;1.00
490;DHT22;231;48.120;11.576;2022-07-29T07:49:59;29.90;1.00
490;DHT22;231;48.120;11.576;2022-07-29T07:52:26;29.70;1.00
490;DHT22;231;48.120;11.576;2022-07-29T07:54:55;29.80;1.00
490;DHT22;231;48.120;11.576;2022-07-29T07:57:22;29.70;1.00
490;DHT22;231;48.120;11.576;2022-07-29T07:59:48;29.60;1.00
490;DHT22;231;48.120;11.576;2022-07-29T08:02:15;29.50;1.00
490;DHT22;231;48.120;11.576;2022-07-29T08:04:42;29.40;1.00
490;DHT22;231;48.120;11.576;2022-07-29T08:07:09;29.20;1.00
490;DHT22;231;48.120;11.576;2022-07-29T08:09:36;29.20;1.00
490;DHT22;231;48.120;11.576;2022-07-29T08:12:05;29.10;1.00
490;DHT22;231;48.120;11.576;2022-07-29T08:14:32;29.10;1.00
490;DHT22;231;48.120;11.576;2022-07-29T08:17:00;29.20;1.00
490;DHT22;231;48.120;11.576;2022-07-29T08:19:26;29.00;1.00
490;DHT22;231;48.120;11.576;2022-07-29T08:21:54;29.20;1.00
490;DHT22;231;48.120;11.576;2022-07-29T08:24:21;29.20;1.00
490;DHT22;231;48.120;11.576;2022-07-29T08:27:06;29.30;1.00
490;DHT22;231;48.120;11.576;2022-07-29T08:29:33;29.50;1.00
490;DHT22;231;48.120;11.576;2022-07-29T08:32:00;29.50;1.00
490;DHT22;231;48.120;11.576;2022-07-29T08:34:27;29.40;1.00
490;DHT22;231;48.120;11.576;2022-07-29T08:36:54;29.70;1.00
490;DHT22;231;48.120;11.576;2022-07-29T08:39:22;29.50;1.00
490;DHT22;231;48.120;11.576;2022-07-29T08:41:49;29.60;1.00
490;DHT22;231;48.120;11.576;2022-07-29T08:44:19;29.60;1.00
490;DHT22;231;48.120;11.576;2022-07-29T08:46:47;29.80;1.00
490;DHT22;231;48.120;11.576;2022-07-29T08:49:15;29.70;1.00
490;DHT22;231;48.120;11.576;2022-07-29T08:51:43;29.80;1.00
490;DHT22;231;48.120;11.576;2022-07-29T08:54:10;29.70;1.00
490;DHT22;231;48.120;11.576;2022-07-29T08:56:38;29.60;1.00
490;DHT22;231;48.120;11.576;2022-07-29T08:59:08;29.60;1.00
490;DHT22;231;48.120;11.576;2022-07-29T09:01:37;29.60;1.00
490;DHT22;231;48.120;11.576;2022-07-29T09:04:11;29.70;1.00
490;DHT22;231;48.120;11.576;2022-07-29T09:06:43;29.30;1.00
490;DHT22;231;48.120;11.576;2022-07-29T09:09:10;29.10;1.00
490;DHT22;231;48.120;11.576;2022-07-29T09:11:37;29.00;1.00
490;DHT22;231;48.120;11.576;2022-07-29T09:14:04;28.80;1.00
490;DHT22;231;48.120;11.576;2022-07-29T09:16:52;28.50;1.00
490;DHT22;231;48.120;11.576;2022-07-29T09:19:24;28.20;1.00
490;DHT22;231;48.120;11.576;2022-07-29T09:21:51;28.30;1.00
490;DHT22;231;48.120;11.576;2022-07-29T09:24:24;28.60;1.00
490;DHT22;231;48.120;11.576;2022-07-29T09:26:51;28.70;1.00
490;DHT22;231;48.120;11.576;2022-07-29T09:29:19;29.00;1.00
490;DHT22;231;48.120;11.576;2022-07-29T09:31:48;28.80;1.00
490;DHT22;231;48.120;11.576;2022-07-29T09:34:21;29.00;1.00
490;DHT22;231;48.120;11.576;2022-07-29T09:36:50;29.20;1.00
490;DHT22;231;48.120;11.576;2022-07-29T09:39:27;29.20;1.00
490;DHT22;231;48.120;11.576;2022-07-29T09:41:57;29.50;1.00
490;DHT22;231;48.120;11.576;2022-07-29T09:44:24;29.10;1.00
490;DHT22;231;48.120;11.576;2022-07-29T09:46:56;29.00;1.00
490;DHT22;231;48.120;11.576;2022-07-29T09:49:25;29.10;1.00
490;DHT22;231;48.120;11.576;2022-07-29T09:52:03;28.90;1.00
490;DHT22;231;48.120;11.576;2022-07-29T09:54:31;28.90;1.00
490;DHT22;231;48.120;11.576;2022-07-29T09:57:03;28.50;1.00
490;DHT22;231;48.120;11.576;2022-07-29T09:59:30;28.20;1.00
490;DHT22;231;48.120;11.576;2022-07-29T10:01:58;28.10;1.00
490;DHT22;231;48.120;11.576;2022-07-29T10:04:37;28.10;1.00
490;DHT22;231;48.120;11.576;2022-07-29T10:07:04;27.80;1.00
490;DHT22;231;48.120;11.576;2022-07-29T10:09:31;27.80;1.00
490;DHT22;231;48.120;11.576;2022-07-29T10:12:09;28.00;1.00
490;DHT22;231;48.120;11.576;2022-07-29T10:14:38;28.10;1.00
490;DHT22;231;48.120;11.576;2022-07-29T10:17:06;28.10;1.00
490;DHT22;231;48.120;11.576;2022-07-29T10:19:35;28.20;1.00
490;DHT22;231;48.120;11.576;2022-07-29T10:22:04;27.70;1.00
490;DHT22;231;48.120;11.576;2022-07-29T10:24:32;27.40;1.00
490;DHT22;231;48.120;11.576;2022-07-29T10:27:00;27.40;1.00
490;DHT22;231;48.120;11.576;2022-07-29T10:29:28;27.40;1.00
490;DHT22;231;48.120;11.576;2022-07-29T10:32:17;27.50;1.00
490;DHT22;231;48.120;11.576;2022-07-29T10:35:01;27.40;1.00
490;DHT22;231;48.120;11.576;2022-07-29T10:37:42;27.50;1.00
490;DHT22;231;48.120;11.576;2022-07-29T10:40:21;27.60;1.00
490;DHT22;231;48.120;11.576;2022-07-29T10:43:14;27.50;1.40
490;DHT22;231;48.120;11.576;2022-07-29T10:45:43;27.40;1.30
490;DHT22;231;48.120;11.576;2022-07-29T10:48:11;27.60;1.20
490;DHT22;231;48.120;11.576;2022-07-29T10:50:57;27.80;1.30
490;DHT22;231;48.120;11.576;2022-07-29T10:53:46;27.90;1.00
490;DHT22;231;48.120;11.576;2022-07-29T10:56:26;28.00;1.20
490;DHT22;231;48.120;11.576;2022-07-29T10:59:24;28.10;1.00
490;DHT22;231;48.120;11.576;2022-07-29T11:01:53;28.20;1.00
490;DHT22;231;48.120;11.576;2022-07-29T11:07:24;28.30;1.00
490;DHT22;231;48.120;11.576;2022-07-29T11:10:22;28.30;1.00
490;DHT22;231;48.120;11.576;2022-07-29T11:12:49;28.20;1.00
490;DHT22;231;48.120;11.576;2022-07-29T11:15:18;28.20;1.00
490;DHT22;231;48.120;11.576;2022-07-29T11:18:04;28.40;1.00
490;DHT22;231;48.120;11.576;2022-07-29T11:20:33;28.50;1.00
490;DHT22;231;48.120;11.576;2022-07-29T11:23:17;28.60;1.00
490;DHT22;231;48.120;11.576;2022-07-29T11:25:44;28.70;1.00
490;DHT22;231;48.120;11.576;2022-07-29T11:28:16;28.70;1.00
490;DHT22;231;48.120;11.576;2022-07-29T11:30:51;28.80;1.00
490;DHT22;231;48.120;11.576;2022-07-29T11:33:29;28.90;1.00
490;DHT22;231;48.120;11.576;2022-07-29T11:36:09;28.90;1.00
490;DHT22;231;48.120;11.576;2022-07-29T11:38:38;29.10;1.00
490;DHT22;231;48.120;11.576;2022-07-29T11:41:24;29.20;1.00
490;DHT22;231;48.120;11.576;2022-07-29T11:43:52;29.30;1.00
490;DHT22;231;48.120;11.576;2022-07-29T11:46:45;29.30;1.00
490;DHT22;231;48.120;11.576;2022-07-29T11:49:19;29.40;1.00
490;DHT22;231;48.120;11.576;2022-07-29T11:51:50;29.30;1.00
490;DHT22;231;48.120;11.576;2022-07-29T11:54:24;29.40;1.00
490;DHT22;231;48.120;11.576;2022-07-29T11:56:51;29.40;1.00
490;DHT22;231;48.120;11.576;2022-07-29T11:59:19;29.40;1.00
490;DHT22;231;48.120;11.576;2022-07-29T12:01:53;29.30;1.00
490;DHT22;231;48.120;11.576;2022-07-29T12:04:20;29.30;1.00
490;DHT22;231;48.120;11.576;2022-07-29T12:06:49;29.20;1.00
490;DHT22;231;48.120;11.576;2022-07-29T12:09:18;29.10;1.00
490;DHT22;231;48.120;11.576;2022-07-29T12:11:46;29.00;1.00
490;DHT22;231;48.120;11.576;2022-07-29T12:14:26;28.70;1.00
490;DHT22;231;48.120;11.576;2022-07-29T12:16:53;28.50;1.00
490;DHT22;231;48.120;11.576;2022-07-29T12:19:19;28.80;1.00
490;DHT22;231;48.120;11.576;2022-07-29T12:21:47;29.00;1.00
490;DHT22;231;48.120;11.576;2022-07-29T12:24:15;29.00;1.00
490;DHT22;231;48.120;11.576;2022-07-29T12:26:54;29.10;1.00
490;DHT22;231;48.120;11.576;2022-07-29T12:29:21;29.20;1.00
490;DHT22;231;48.120;11.576;2022-07-29T12:31:52;29.20;1.00
490;DHT22;231;48.120;11.576;2022-07-29T12:34:22;29.20;1.00
490;DHT22;231;48.120;11.576;2022-07-29T12:36:50;29.10;1.00
490;DHT22;231;48.120;11.576;2022-07-29T12:39:17;28.70;1.00
490;DHT22;231;48.120;11.576;2022-07-29T12:41:44;28.50;1.00
490;DHT22;231;48.120;11.576;2022-07-29T12:44:13;28.60;1.00
490;DHT22;231;48.120;11.576;2022-07-29T12:46:40;28.70;1.00
490;DHT22;231;48.120;11.576;2022-07-29T12:49:07;28.80;1.00
490;DHT22;231;48.120;11.576;2022-07-29T12:51:36;28.70;1.00
490;DHT22;231;48.120;11.576;2022-07-29T12:54:05;28.60;1.00
490;DHT22;231;48.120;11.576;2022-07-29T12:56:33;28.60;1.00
490;DHT22;231;48.120;11.576;2022-07-29T12:59:13;28.80;1.00
490;DHT22;231;48.120;11.576;2022-07-29T13:01:40;28.60;1.00
490;DHT22;231;48.120;11.576;2022-07-29T13:04:07;28.60;1.00
490;DHT22;231;48.120;11.576;2022-07-29T13:06:37;28.40;1.00
490;DHT22;231;48.120;11.576;2022-07-29T13:09:07;27.90;1.00
490;DHT22;231;48.120;11.576;2022-07-29T13:11:37;28.00;1.00
490;DHT22;231;48.120;11.576;2022-07-29T13:14:06;27.90;1.00
490;DHT22;231;48.120;11.576;2022-07-29T13:16:35;27.80;1.00
490;DHT22;231;48.120;11.576;2022-07-29T13:19:04;27.70;1.00
490;DHT22;231;48.120;11.576;2022-07-29T13:21:31;27.50;1.00
490;DHT22;231;48.120;11.576;2022-07-29T13:23:58;27.50;1.00
490;DHT22;231;48.120;11.576;2022-07-29T13:26:25;27.60;1.00
490;DHT22;231;48.120;11.576;2022-07-29T13:28:53;27.70;1.00
490;DHT22;231;48.120;11.576;2022-07-29T13:31:20;27.80;1.00
490;DHT22;231;48.120;11.576;2022-07-29T13:33:49;27.60;1.00
490;DHT22;231;48.120;11.576;2022-07-29T13:36:15;27.10;1.00
490;DHT22;231;48.120;11.576;2022-07-29T13:38:43;27.20;1.00
490;DHT22;231;48.120;11.576;2022-07-29T13:41:10;27.20;1.00
490;DHT22;231;48.120;11.576;2022-07-29T13:43:37;27.00;1.00
490;DHT22;231;48.120;11.576;2022-07-29T13:46:03;27.00;1.00
490;DHT22;231;48.120;11.576;2022-07-29T13:48:30;26.90;1.10
490;DHT22;231;48.120;11.576;2022-07-29T13:50:59;26.80;1.10
490;DHT22;231;48.120;11.576;2022-07-29T13:53:25;26.70;1.30
490;DHT22;231;48.120;11.576;2022-07-29T13:55:53;26.90;1.20
490;DHT22;231;48.120;11.576;2022-07-29T13:58:21;27.10;1.00
490;DHT22;231;48.120;11.576;2022-07-29T14:00:47;27.20;1.10
490;DHT22;231;48.120;11.576;2022-07-29T14:03:16;27.20;1.10
490;DHT22;231;48.120;11.576;2022-07-29T14:05:46;27.40;1.10
490;DHT22;231;48.120;11.576;2022-07-29T14:08:14;27.70;1.00
490;DHT22;231;48.120;11.576;2022-07-29T14:10:41;27.90;1.00
490;DHT22;231;48.120;11.576;2022-07-29T14:13:08;28.00;1.00
490;DHT22;231;48.120;11.576;2022-07-29T14:15:35;28.00;1.00
490;DHT22;231;48.120;11.576;2022-07-29T14:18:02;28.10;1.00
490;DHT22;231;48.120;11.576;2022-07-29T14:20:29;28.10;1.00
490;DHT22;231;48.120;11.576;2022-07-29T14:22:57;28.00;1.00
490;DHT22;231;48.120;11.576;2022-07-29T14:25:25;28.00;1.00
490;DHT22;231;48.120;11.576;2022-07-29T14:27:52;27.70;1.00
490;DHT22;231;48.120;11.576;2022-07-29T14:30:20;27.80;1.00
490;DHT22;231;48.120;11.576;2022-07-29T14:32:47;27.80;1.00
490;DHT22;231;48.120;11.576;2022-07-29T14:35:14;27.70;1.00
490;DHT22;231;48.120;11.576;2022-07-29T14:37:41;27.80;1.00
490;DHT22;231;48.120;11.576;2022-07-29T14:40:10;27.80;1.00
490;DHT22;231;48.120;11.576;2022-07-29T14:42:39;27.90;1.00
490;DHT22;231;48.120;11.576;2022-07-29T14:45:07;27.90;1.00
490;DHT22;231;48.120;11.576;2022-07-29T14:47:34;27.90;1.00
490;DHT22;231;48.120;11.576;2022-07-29T14:50:02;28.00;1.00
490;DHT22;231;48.120;11.576;2022-07-29T14:52:29;28.00;1.00
490;DHT22;231;48.120;11.576;2022-07-29T14:54:57;27.90;1.00
490;DHT22;231;48.120;11.576;2022-07-29T14:57:24;27.80;1.00
490;DHT22;231;48.120;11.576;2022-07-29T14:59:52;27.80;1.00
490;DHT22;231;48.120;11.576;2022-07-29T15:02:19;27.80;1.00
490;DHT22;231;48.120;11.576;2022-07-29T15:04:46;27.80;1.00
490;DHT22;231;48.120;11.576;2022-07-29T15:07:13;27.90;1.00
490;DHT22;231;48.120;11.576;2022-07-29T15:09:41;28.00;1.00
490;DHT22;231;48.120;11.576;2022-07-29T15:12:08;28.00;1.00
490;DHT22;231;48.120;11.576;2022-07-29T15:14:35;28.00;1.00
490;DHT22;231;48.120;11.576;2022-07-29T15:17:04;27.80;1.00
490;DHT22;231;48.120;11.576;2022-07-29T15:19:31;27.80;1.00
490;DHT22;231;48.120;11.576;2022-07-29T15:21:58;27.70;1.00
490;DHT22;231;48.120;11.576;2022-07-29T15:24:25;27.60;1.00
490;DHT22;231;48.120;11.576;2022-07-29T15:26:52;27.60;1.00
490;DHT22;231;48.120;11.576;2022-07-29T15:29:19;27.50;1.00
490;DHT22;231;48.120;11.576;2022-07-29T15:31:46;27.60;1.00
490;DHT22;231;48.120;11.576;2022-07-29T15:34:15;27.40;1.00
490;DHT22;231;48.120;11.576;2022-07-29T15:36:42;27.30;1.00
490;DHT22;231;48.120;11.576;2022-07-29T15:39:09;27.20;1.00
490;DHT22;231;48.120;11.576;2022-07-29T15:41:36;27.30;1.00
490;DHT22;231;48.120;11.576;2022-07-29T15:44:03;27.10;1.60
490;DHT22;231;48.120;11.576;2022-07-29T15:46:30;27.10;2.10
490;DHT22;231;48.120;11.576;2022-07-29T15:49:15;26.90;3.30
490;DHT22;231;48.120;11.576;2022-07-29T15:51:43;26.70;3.50
490;DHT22;231;48.120;11.576;2022-07-29T15:54:10;26.60;4.00
490;DHT22;231;48.120;11.576;2022-07-29T15:56:37;26.70;4.50
490;DHT22;231;48.120;11.576;2022-07-29T15:59:04;26.60;4.50
490;DHT22;231;48.120;11.576;2022-07-29T16:01:31;26.40;4.90
490;DHT22;231;48.120;11.576;2022-07-29T16:03:58;26.30;5.40
490;DHT22;231;48.120;11.576;2022-07-29T16:06:26;26.30;5.50
490;DHT22;231;48.120;11.576;2022-07-29T16:08:54;26.40;5.60
490;DHT22;231;48.120;11.576;2022-07-29T16:11:21;26.40;5.60
490;DHT22;231;48.120;11.576;2022-07-29T16:13:48;26.40;5.50
490;DHT22;231;48.120;11.576;2022-07-29T16:16:15;26.40;5.50
490;DHT22;231;48.120;11.576;2022-07-29T16:18:43;26.30;5.80
490;DHT22;231;48.120;11.576;2022-07-29T16:21:10;26.00;6.20
490;DHT22;231;48.120;11.576;2022-07-29T16:23:38;25.90;6.60
490;DHT22;231;48.120;11.576;2022-07-29T16:26:06;25.90;6.90
490;DHT22;231;48.120;11.576;2022-07-29T16:28:33;25.90;7.20
490;DHT22;231;48.120;11.576;2022-07-29T16:31:00;25.80;7.30
490;DHT22;231;48.120;11.576;2022-07-29T16:33:27;25.80;7.30
490;DHT22;231;48.120;11.576;2022-07-29T16:35:54;25.90;7.40
490;DHT22;231;48.120;11.576;2022-07-29T16:38:21;25.80;7.30
490;DHT22;231;48.120;11.576;2022-07-29T16:40:49;25.90;7.40
490;DHT22;231;48.120;11.576;2022-07-29T16:43:16;25.80;7.80